sensor_id;sensor_type;location;lat;lon;timestamp;pressure;altitude;pressure_sealevel;temperature;humidity
44297;BME280;51842;47.450;8.654;2023-05-24T00:00:15;95606.41;;;12.80;100.00
44297;BME280;51842;47.450;8.654;2023-05-24T00:02:41;95606.16;;;12.77;100.00
44297;BME280;51842;47.450;8.654;2023-05-24T00:05:09;95602.41;;;12.78;100.00
44297;BME280;51842;47.450;8.654;2023-05-24T00:07:36;95602.47;;;12.72;100.00
44297;BME280;51842;47.450;8.654;2023-05-24T00:10:06;95602.72;;;12.71;100.00
44297;BME280;51842;47.450;8.654;2023-05-24T00:12:32;95598.72;;;12.68;100.00
44297;BME280;51842;47.450;8.654;2023-05-24T00:14:58;95596.59;;;12.70;100.00
44297;BME280;51842;47.450;8.654;2023-05-24T00:17:24;95601.69;;;12.67;100.00
44297;BME280;51842;47.450;8.654;2023-05-24T00:19:50;95607.34;;;12.60;100.00
44297;BME280;51842;47.450;8.654;2023-05-24T00:22:17;95596.91;;;12.59;100.00
44297;BME280;51842;47.450;8.654;2023-05-24T00:24:46;95603.34;;;12.53;100.00
44297;BME280;51842;47.450;8.654;2023-05-24T00:27:13;95598.06;;;12.47;100.00
44297;BME280;51842;47.450;8.654;2023-05-24T00:29:40;95606.34;;;12.41;100.00
44297;BME280;51842;47.450;8.654;2023-05-24T00:32:05;95603.19;;;12.39;100.00
44297;BME280;51842;47.450;8.654;2023-05-24T00:34:31;95594.69;;;12.32;100.00
44297;BME280;51842;47.450;8.654;2023-05-24T00:36:57;95593.34;;;12.29;100.00
44297;BME280;51842;47.450;8.654;2023-05-24T00:39:23;95589.59;;;12.25;100.00
44297;BME280;51842;47.450;8.654;2023-05-24T00:41:48;95588.03;;;12.19;100.00
44297;BME280;51842;47.450;8.654;2023-05-24T00:44:14;95582.19;;;12.17;100.00
44297;BME280;51842;47.450;8.654;2023-05-24T00:46:40;95582.44;;;12.15;100.00
44297;BME280;51842;47.450;8.654;2023-05-24T00:49:06;95588.34;;;12.12;100.00
44297;BME280;51842;47.450;8.654;2023-05-24T00:51:34;95589.72;;;12.04;100.00
44297;BME280;51842;47.450;8.654;2023-05-24T00:54:01;95583.34;;;12.00;100.00
44297;BME280;51842;47.450;8.654;2023-05-24T00:56:27;95585.72;;;12.02;100.00
44297;BME280;51842;47.450;8.654;2023-05-24T00:58:53;95587.28;;;12.08;100.00
44297;BME280;51842;47.450;8.654;2023-05-24T01:01:21;95587.03;;;12.04;100.00
44297;BME280;51842;47.450;8.654;2023-05-24T01:03:52;95586.75;;;12.06;100.00
44297;BME280;51842;47.450;8.654;2023-05-24T01:06:18;95583.59;;;11.99;100.00
44297;BME280;51842;47.450;8.654;2023-05-24T01:09:03;95587.34;;;11.93;100.00
44297;BME280;51842;47.450;8.654;2023-05-24T01:14:36;95577.75;;;11.87;100.00
44297;BME280;51842;47.450;8.654;2023-05-24T01:17:22;95576.97;;;11.86;100.00
44297;BME280;51842;47.450;8.654;2023-05-24T01:20:05;95583.63;;;11.89;100.00
44297;BME280;51842;47.450;8.654;2023-05-24T01:28:26;95578.28;;;11.84;100.00
44297;BME280;51842;47.450;8.654;2023-05-24T01:30:54;95577.47;;;11.78;100.00
44297;BME280;51842;47.450;8.654;2023-05-24T01:33:21;95578.56;;;11.77;100.00
44297;BME280;51842;47.450;8.654;2023-05-24T01:35:47;95577.78;;;11.76;100.00
44297;BME280;51842;47.450;8.654;2023-05-24T01:38:12;95587.66;;;11.71;100.00
44297;BME280;51842;47.450;8.654;2023-05-24T01:40:40;95572.72;;;11.70;100.00
44297;BME280;51842;47.450;8.654;2023-05-24T01:43:32;95576.19;;;11.70;100.00
44297;BME280;51842;47.450;8.654;2023-05-24T01:46:17;95581.53;;;11.70;100.00
44297;BME280;51842;47.450;8.654;2023-05-24T01:48:58;95578.03;;;11.75;100.00
44297;BME280;51842;47.450;8.654;2023-05-24T01:51:33;95582.31;;;11.71;100.00
44297;BME280;51842;47.450;8.654;2023-05-24T01:54:05;95581.22;;;11.72;100.00
44297;BME280;51842;47.450;8.654;2023-05-24T01:56:33;95585.25;;;11.74;100.00
44297;BME280;51842;47.450;8.654;2023-05-24T01:59:02;95578.31;;;11.73;100.00
44297;BME280;51842;47.450;8.654;2023-05-24T02:01:29;95577.53;;;11.73;100.00
44297;BME280;51842;47.450;8.654;2023-05-24T02:03:56;95575.41;;;11.70;100.00
44297;BME280;51842;47.450;8.654;2023-05-24T02:06:22;95575.94;;;11.62;100.00
44297;BME280;51842;47.450;8.654;2023-05-24T02:08:47;95574.59;;;11.59;100.00
44297;BME280;51842;47.450;8.654;2023-05-24T02:11:13;95572.22;;;11.57;100.00
44297;BME280;51842;47.450;8.654;2023-05-24T02:13:39;95566.63;;;11.54;100.00
44297;BME280;51842;47.450;8.654;2023-05-24T02:16:05;95563.16;;;11.53;100.00
44297;BME280;51842;47.450;8.654;2023-05-24T02:18:30;95570.34;;;11.53;100.00
44297;BME280;51842;47.450;8.654;2023-05-24T02:21:00;95567.72;;;11.48;100.00
44297;BME280;51842;47.450;8.654;2023-05-24T02:23:27;95576.50;;;11.43;100.00
44297;BME280;51842;47.450;8.654;2023-05-24T02:25:52;95572.78;;;11.39;100.00
44297;BME280;51842;47.450;8.654;2023-05-24T02:28:18;95566.66;;;11.33;100.00
44297;BME280;51842;47.450;8.654;2023-05-24T02:30:44;95569.56;;;11.37;100.00
44297;BME280;51842;47.450;8.654;2023-05-24T02:33:10;95568.00;;;11.36;100.00
44297;BME280;51842;47.450;8.654;2023-05-24T02:35:36;95567.19;;;11.35;100.00
44297;BME280;51842;47.450;8.654;2023-05-24T02:38:02;95571.72;;;11.30;100.00
44297;BME280;51842;47.450;8.654;2023-05-24T02:40:31;95580.78;;;11.34;100.00
44297;BME280;51842;47.450;8.654;2023-05-24T02:42:57;95571.75;;;11.35;100.00
44297;BME280;51842;47.450;8.654;2023-05-24T02:45:22;95569.06;;;11.30;100.00
44297;BME280;51842;47.450;8.654;2023-05-24T02:47:48;95568.00;;;11.31;100.00
44297;BME280;51842;47.450;8.654;2023-05-24T02:50:14;95558.94;;;11.27;100.00
44297;BME280;51842;47.450;8.654;2023-05-24T02:52:40;95567.47;;;11.24;100.00
44297;BME280;51842;47.450;8.654;2023-05-24T02:55:06;95564.81;;;11.29;100.00
44297;BME280;51842;47.450;8.654;2023-05-24T02:57:32;95568.53;;;11.28;100.00
44297;BME280;51842;47.450;8.654;2023-05-24T02:59:58;95566.16;;;11.31;100.00
44297;BME280;51842;47.450;8.654;2023-05-24T03:02:24;95568.81;;;11.31;100.00
44297;BME280;51842;47.450;8.654;2023-05-24T03:04:53;95571.19;;;11.33;100.00
44297;BME280;51842;47.450;8.654;2023-05-24T03:07:19;95571.19;;;11.28;100.00
44297;BME280;51842;47.450;8.654;2023-05-24T03:09:44;95575.47;;;11.29;100.00
44297;BME280;51842;47.450;8.654;2023-05-24T03:12:10;95574.13;;;11.26;100.00
44297;BME280;51842;47.450;8.654;2023-05-24T03:14:37;95576.53;;;11.28;100.00
44297;BME280;51842;47.450;8.654;2023-05-24T03:17:03;95573.31;;;11.31;100.00
44297;BME280;51842;47.450;8.654;2023-05-24T03:19:28;95574.13;;;11.26;100.00
44297;BME280;51842;47.450;8.654;2023-05-24T03:21:55;95572.00;;;11.28;100.00
44297;BME280;51842;47.450;8.654;2023-05-24T03:24:20;95571.72;;;11.30;100.00
44297;BME280;51842;47.450;8.654;2023-05-24T03:26:46;95574.94;;;11.27;100.00
44297;BME280;51842;47.450;8.654;2023-05-24T03:29:12;95572.28;;;11.27;100.00
44297;BME280;51842;47.450;8.654;2023-05-24T03:31:38;95576.28;;;11.29;100.00
44297;BME280;51842;47.450;8.654;2023-05-24T03:34:03;95573.06;;;11.27;100.00
44297;BME280;51842;47.450;8.654;2023-05-24T03:36:29;95572.28;;;11.27;100.00
44297;BME280;51842;47.450;8.654;2023-05-24T03:38:55;95577.88;;;11.25;100.00
44297;BME280;51842;47.450;8.654;2023-05-24T03:41:22;95580.28;;;11.27;100.00
44297;BME280;51842;47.450;8.654;2023-05-24T03:43:48;95575.47;;;11.24;100.00
44297;BME280;51842;47.450;8.654;2023-05-24T03:46:14;95578.69;;;11.21;100.00
44297;BME280;51842;47.450;8.654;2023-05-24T03:48:39;95581.09;;;11.17;100.00
44297;BME280;51842;47.450;8.654;2023-05-24T03:51:05;95583.19;;;11.15;100.00
44297;BME280;51842;47.450;8.654;2023-05-24T03:53:31;95579.47;;;11.11;100.00
44297;BME280;51842;47.450;8.654;2023-05-24T03:55:57;95576.56;;;11.13;100.00
44297;BME280;51842;47.450;8.654;2023-05-24T03:58:22;95573.38;;;11.16;100.00
44297;BME280;51842;47.450;8.654;2023-05-24T04:00:48;95569.34;;;11.18;100.00
44297;BME280;51842;47.450;8.654;2023-05-24T04:03:14;95575.75;;;11.17;100.00
44297;BME280;51842;47.450;8.654;2023-05-24T04:05:39;95572.81;;;11.14;100.00
44297;BME280;51842;47.450;8.654;2023-05-24T04:08:05;95579.50;;;11.16;100.00
44297;BME280;51842;47.450;8.654;2023-05-24T04:10:31;95572.03;;;11.13;100.00
44297;BME280;51842;47.450;8.654;2023-05-24T04:12:56;95568.03;;;11.16;100.00
44297;BME280;51842;47.450;8.654;2023-05-24T04:15:23;95566.94;;;11.17;100.00
44297;BME280;51842;47.450;8.654;2023-05-24T04:17:49;95575.22;;;11.20;100.00
44297;BME280;51842;47.450;8.654;2023-05-24T04:20:20;95572.53;;;11.20;100.00
44297;BME280;51842;47.450;8.654;2023-05-24T04:22:50;95580.53;;;11.20;100.00
44297;BME280;51842;47.450;8.654;2023-05-24T04:25:16;95580.78;;;11.19;100.00
44297;BME280;51842;47.450;8.654;2023-05-24T04:27:42;95577.34;;;11.23;100.00
44297;BME280;51842;47.450;8.654;2023-05-24T04:30:10;95574.13;;;11.26;100.00
44297;BME280;51842;47.450;8.654;2023-05-24T04:32:36;95579.19;;;11.28;100.00
44297;BME280;51842;47.450;8.654;2023-05-24T04:35:02;95577.59;;;11.27;100.00
44297;BME280;51842;47.450;8.654;2023-05-24T04:37:28;95582.94;;;11.27;100.00
44297;BME280;51842;47.450;8.654;2023-05-24T04:39:56;95590.94;;;11.32;100.00
44297;BME280;51842;47.450;8.654;2023-05-24T04:42:22;95585.31;;;11.33;100.00
44297;BME280;51842;47.450;8.654;2023-05-24T04:44:48;95582.13;;;11.37;100.00
44297;BME280;51842;47.450;8.654;2023-05-24T04:47:13;95590.94;;;11.32;100.00
44297;BME280;51842;47.450;8.654;2023-05-24T04:49:39;95578.13;;;11.34;100.00
44297;BME280;51842;47.450;8.654;2023-05-24T04:52:05;95585.31;;;11.39;100.00
44297;BME280;51842;47.450;8.654;2023-05-24T04:54:32;95577.88;;;11.35;100.00
44297;BME280;51842;47.450;8.654;2023-05-24T04:56:58;95579.19;;;11.38;100.00
44297;BME280;51842;47.450;8.654;2023-05-24T04:59:24;95592.25;;;11.40;100.00
44297;BME280;51842;47.450;8.654;2023-05-24T05:01:50;95592.78;;;11.42;100.00
44297;BME280;51842;47.450;8.654;2023-05-24T05:04:15;95594.63;;;11.46;100.00
44297;BME280;51842;47.450;8.654;2023-05-24T05:06:42;95596.75;;;11.49;100.00
44297;BME280;51842;47.450;8.654;2023-05-24T05:09:09;95604.25;;;11.47;100.00
44297;BME280;51842;47.450;8.654;2023-05-24T05:11:38;95603.19;;;11.48;100.00
44297;BME280;51842;47.450;8.654;2023-05-24T05:14:04;95599.19;;;11.46;100.00
44297;BME280;51842;47.450;8.654;2023-05-24T05:16:30;95606.09;;;11.52;100.00
44297;BME280;51842;47.450;8.654;2023-05-24T05:18:57;95608.22;;;11.50;100.00
44297;BME280;51842;47.450;8.654;2023-05-24T05:21:23;95604.78;;;11.49;100.00
44297;BME280;51842;47.450;8.654;2023-05-24T05:23:48;95612.50;;;11.46;100.00
44297;BME280;51842;47.450;8.654;2023-05-24T05:26:14;95613.56;;;11.50;100.00
44297;BME280;51842;47.450;8.654;2023-05-24T05:28:40;95613.84;;;11.48;100.00
44297;BME280;51842;47.450;8.654;2023-05-24T05:31:06;95614.09;;;11.57;100.00
44297;BME280;51842;47.450;8.654;2023-05-24T05:33:32;95623.69;;;11.53;100.00
44297;BME280;51842;47.450;8.654;2023-05-24T05:35:58;95621.31;;;11.56;100.00
44297;BME280;51842;47.450;8.654;2023-05-24T05:38:24;95617.31;;;11.54;100.00
44297;BME280;51842;47.450;8.654;2023-05-24T05:40:49;95618.38;;;11.48;100.00
44297;BME280;51842;47.450;8.654;2023-05-24T05:43:15;95615.69;;;11.53;100.00
44297;BME280;51842;47.450;8.654;2023-05-24T05:45:41;95620.25;;;11.52;100.00
44297;BME280;51842;47.450;8.654;2023-05-24T05:48:07;95618.91;;;11.55;100.00
44297;BME280;51842;47.450;8.654;2023-05-24T05:50:32;95619.69;;;11.61;100.00
44297;BME280;51842;47.450;8.654;2023-05-24T05:52:58;95621.81;;;11.58;100.00
44297;BME280;51842;47.450;8.654;2023-05-24T05:55:24;95625.56;;;11.63;100.00
44297;BME280;51842;47.450;8.654;2023-05-24T05:57:50;95624.50;;;11.58;100.00
44297;BME280;51842;47.450;8.654;2023-05-24T06:00:16;95632.75;;;11.62;100.00
44297;BME280;51842;47.450;8.654;2023-05-24T06:02:42;95625.03;;;11.61;100.00
44297;BME280;51842;47.450;8.654;2023-05-24T06:05:08;95625.00;;;11.66;100.00
44297;BME280;51842;47.450;8.654;2023-05-24T06:07:34;95626.66;;;11.56;100.00
44297;BME280;51842;47.450;8.654;2023-05-24T06:10:02;95625.56;;;11.52;100.00
44297;BME280;51842;47.450;8.654;2023-05-24T06:12:28;95623.44;;;11.49;100.00
44297;BME280;51842;47.450;8.654;2023-05-24T06:14:53;95629.31;;;11.51;100.00
44297;BME280;51842;47.450;8.654;2023-05-24T06:17:22;95628.25;;;11.42;100.00
44297;BME280;51842;47.450;8.654;2023-05-24T06:19:49;95620.25;;;11.47;100.00
44297;BME280;51842;47.450;8.654;2023-05-24T06:22:18;95625.03;;;11.40;100.00
44297;BME280;51842;47.450;8.654;2023-05-24T06:24:44;95635.72;;;11.40;100.00
44297;BME280;51842;47.450;8.654;2023-05-24T06:27:10;95626.41;;;11.38;100.00
44297;BME280;51842;47.450;8.654;2023-05-24T06:29:36;95622.41;;;11.35;100.00
44297;BME280;51842;47.450;8.654;2023-05-24T06:32:03;95616.28;;;11.34;100.00
44297;BME280;51842;47.450;8.654;2023-05-24T06:34:29;95629.88;;;11.38;100.00
44297;BME280;51842;47.450;8.654;2023-05-24T06:36:54;95624.53;;;11.38;100.00
44297;BME280;51842;47.450;8.654;2023-05-24T06:39:20;95630.13;;;11.52;100.00
44297;BME280;51842;47.450;8.654;2023-05-24T06:41:47;95624.78;;;11.52;100.00
44297;BME280;51842;47.450;8.654;2023-05-24T06:44:16;95629.56;;;11.60;100.00
44297;BME280;51842;47.450;8.654;2023-05-24T06:46:41;95638.34;;;11.71;100.00
44297;BME280;51842;47.450;8.654;2023-05-24T06:49:07;95635.69;;;11.55;100.00
44297;BME280;51842;47.450;8.654;2023-05-24T06:51:33;95635.44;;;11.72;100.00
44297;BME280;51842;47.450;8.654;2023-05-24T06:53:59;95642.59;;;11.87;100.00
44297;BME280;51842;47.450;8.654;2023-05-24T06:56:25;95643.38;;;12.03;100.00
44297;BME280;51842;47.450;8.654;2023-05-24T06:58:51;95647.13;;;12.07;100.00
44297;BME280;51842;47.450;8.654;2023-05-24T07:01:17;95648.94;;;12.12;100.00
44297;BME280;51842;47.450;8.654;2023-05-24T07:03:43;95646.81;;;12.09;100.00
44297;BME280;51842;47.450;8.654;2023-05-24T07:06:09;95647.13;;;12.07;100.00
44297;BME280;51842;47.450;8.654;2023-05-24T07:08:41;95651.41;;;11.93;100.00
44297;BME280;51842;47.450;8.654;2023-05-24T07:11:07;95653.53;;;11.80;100.00
44297;BME280;51842;47.450;8.654;2023-05-24T07:13:34;95649.00;;;11.81;100.00
44297;BME280;51842;47.450;8.654;2023-05-24T07:16:00;95659.41;;;11.77;100.00
44297;BME280;51842;47.450;8.654;2023-05-24T07:18:26;95654.88;;;11.78;100.00
44297;BME280;51842;47.450;8.654;2023-05-24T07:20:52;95657.53;;;11.83;100.00
44297;BME280;51842;47.450;8.654;2023-05-24T07:23:19;95660.00;;;11.85;100.00
44297;BME280;51842;47.450;8.654;2023-05-24T07:25:45;95657.56;;;11.88;100.00
44297;BME280;51842;47.450;8.654;2023-05-24T07:28:10;95663.13;;;11.97;100.00
44297;BME280;51842;47.450;8.654;2023-05-24T07:30:38;95662.34;;;12.01;100.00
44297;BME280;51842;47.450;8.654;2023-05-24T07:33:04;95665.25;;;12.05;100.00
44297;BME280;51842;47.450;8.654;2023-05-24T07:35:30;95661.50;;;12.11;100.00
44297;BME280;51842;47.450;8.654;2023-05-24T07:37:57;95657.47;;;12.24;100.00
44297;BME280;51842;47.450;8.654;2023-05-24T07:40:24;95661.66;;;12.40;100.00
44297;BME280;51842;47.450;8.654;2023-05-24T07:42:50;95658.19;;;12.45;100.00
44297;BME280;51842;47.450;8.654;2023-05-24T07:45:16;95659.22;;;12.49;100.00
44297;BME280;51842;47.450;8.654;2023-05-24T07:47:41;95661.91;;;12.44;100.00
44297;BME280;51842;47.450;8.654;2023-05-24T07:50:08;95657.34;;;12.55;100.00
44297;BME280;51842;47.450;8.654;2023-05-24T07:52:34;95660.53;;;12.57;100.00
44297;BME280;51842;47.450;8.654;2023-05-24T07:54:59;95653.34;;;12.47;100.00
44297;BME280;51842;47.450;8.654;2023-05-24T07:57:25;95654.72;;;12.44;100.00
44297;BME280;51842;47.450;8.654;2023-05-24T07:59:51;95659.53;;;12.42;100.00
44297;BME280;51842;47.450;8.654;2023-05-24T08:02:17;95658.69;;;12.52;100.00
44297;BME280;51842;47.450;8.654;2023-05-24T08:04:43;95657.41;;;12.39;100.00
44297;BME280;51842;47.450;8.654;2023-05-24T08:07:09;95657.94;;;12.41;100.00
44297;BME280;51842;47.450;8.654;2023-05-24T08:09:34;95667.84;;;12.31;100.00
44297;BME280;51842;47.450;8.654;2023-05-24T08:12:06;95657.16;;;12.31;100.00
44297;BME280;51842;47.450;8.654;2023-05-24T08:14:33;95667.34;;;12.29;100.00
44297;BME280;51842;47.450;8.654;2023-05-24T08:16:59;95659.59;;;12.27;100.00
44297;BME280;51842;47.450;8.654;2023-05-24T08:19:27;95664.66;;;12.29;100.00
44297;BME280;51842;47.450;8.654;2023-05-24T08:22:00;95662.53;;;12.25;100.00
44297;BME280;51842;47.450;8.654;2023-05-24T08:24:29;95667.34;;;12.29;100.00
44297;BME280;51842;47.450;8.654;2023-05-24T08:26:56;95669.47;;;12.26;100.00
44297;BME280;51842;47.450;8.654;2023-05-24T08:29:22;95655.91;;;12.13;100.00
44297;BME280;51842;47.450;8.654;2023-05-24T08:31:48;95665.56;;;11.93;100.00
44297;BME280;51842;47.450;8.654;2023-05-24T08:34:14;95668.75;;;11.90;100.00
44297;BME280;51842;47.450;8.654;2023-05-24T08:36:40;95663.69;;;11.94;100.00
44297;BME280;51842;47.450;8.654;2023-05-24T08:39:08;95658.88;;;11.91;100.00
44297;BME280;51842;47.450;8.654;2023-05-24T08:41:34;95652.75;;;12.00;100.00
44297;BME280;51842;47.450;8.654;2023-05-24T08:44:07;95650.84;;;12.06;100.00
44297;BME280;51842;47.450;8.654;2023-05-24T08:46:36;95654.59;;;12.05;100.00
44297;BME280;51842;47.450;8.654;2023-05-24T08:49:04;95652.41;;;12.17;100.00
44297;BME280;51842;47.450;8.654;2023-05-24T08:51:30;95653.97;;;12.29;99.62
44297;BME280;51842;47.450;8.654;2023-05-24T08:54:00;95660.38;;;12.33;98.97
44297;BME280;51842;47.450;8.654;2023-05-24T08:56:27;95667.78;;;12.46;98.48
44297;BME280;51842;47.450;8.654;2023-05-24T08:58:55;95667.00;;;12.40;97.22
44297;BME280;51842;47.450;8.654;2023-05-24T09:01:23;95681.94;;;12.52;96.21
44297;BME280;51842;47.450;8.654;2023-05-24T09:03:50;95680.28;;;12.56;97.48
44297;BME280;51842;47.450;8.654;2023-05-24T09:06:18;95685.81;;;12.74;95.10
44297;BME280;51842;47.450;8.654;2023-05-24T09:08:44;95691.72;;;12.71;94.43
44297;BME280;51842;47.450;8.654;2023-05-24T09:11:10;95695.81;;;12.54;94.78
44297;BME280;51842;47.450;8.654;2023-05-24T09:13:37;95701.97;;;12.54;95.23
44297;BME280;51842;47.450;8.654;2023-05-24T09:16:06;95703.25;;;12.67;94.55
44297;BME280;51842;47.450;8.654;2023-05-24T09:18:31;95704.09;;;12.57;94.52
44297;BME280;51842;47.450;8.654;2023-05-24T09:20:57;95706.22;;;12.50;94.60
44297;BME280;51842;47.450;8.654;2023-05-24T09:23:25;95712.66;;;12.54;94.83
44297;BME280;51842;47.450;8.654;2023-05-24T09:25:51;95719.59;;;12.55;94.41
44297;BME280;51842;47.450;8.654;2023-05-24T09:28:18;95710.22;;;12.53;93.50
44297;BME280;51842;47.450;8.654;2023-05-24T09:31:06;95718.34;;;12.32;92.36
44297;BME280;51842;47.450;8.654;2023-05-24T09:33:35;95715.38;;;12.39;93.95
44297;BME280;51842;47.450;8.654;2023-05-24T09:36:04;95711.91;;;12.28;91.70
44297;BME280;51842;47.450;8.654;2023-05-24T09:38:31;95715.97;;;12.20;92.71
44297;BME280;51842;47.450;8.654;2023-05-24T09:41:07;95717.03;;;12.19;93.53
44297;BME280;51842;47.450;8.654;2023-05-24T09:43:47;95717.28;;;12.23;93.90
44297;BME280;51842;47.450;8.654;2023-05-24T09:46:18;95723.69;;;12.22;93.32
44297;BME280;51842;47.450;8.654;2023-05-24T09:49:00;95712.16;;;12.37;93.59
44297;BME280;51842;47.450;8.654;2023-05-24T09:51:35;95722.59;;;12.38;93.06
44297;BME280;51842;47.450;8.654;2023-05-24T09:54:02;95706.03;;;12.41;93.91
44297;BME280;51842;47.450;8.654;2023-05-24T09:56:29;95703.31;;;12.46;93.11
44297;BME280;51842;47.450;8.654;2023-05-24T09:58:57;95714.03;;;12.31;94.28
44297;BME280;51842;47.450;8.654;2023-05-24T10:01:24;95712.75;;;12.18;95.50
44297;BME280;51842;47.450;8.654;2023-05-24T10:03:53;95709.78;;;12.25;94.48
44297;BME280;51842;47.450;8.654;2023-05-24T10:06:19;95709.53;;;12.26;94.06
44297;BME280;51842;47.450;8.654;2023-05-24T10:08:50;95716.22;;;12.29;95.92
44297;BME280;51842;47.450;8.654;2023-05-24T10:15:09;95703.91;;;12.28;91.74
44297;BME280;51842;47.450;8.654;2023-05-24T10:17:35;95710.63;;;12.25;91.47
44297;BME280;51842;47.450;8.654;2023-05-24T10:20:01;95712.19;;;12.26;92.59
44297;BME280;51842;47.450;8.654;2023-05-24T10:22:27;95717.53;;;12.21;90.62
44297;BME280;51842;47.450;8.654;2023-05-24T10:24:56;95717.00;;;12.24;91.75
44297;BME280;51842;47.450;8.654;2023-05-24T10:27:27;95713.00;;;12.22;91.36
44297;BME280;51842;47.450;8.654;2023-05-24T10:32:43;95704.19;;;12.26;90.85
44297;BME280;51842;47.450;8.654;2023-05-24T10:35:11;95710.31;;;12.27;90.29
44297;BME280;51842;47.450;8.654;2023-05-24T10:37:40;95710.88;;;12.24;91.58
44297;BME280;51842;47.450;8.654;2023-05-24T10:40:15;95717.50;;;12.37;92.34
44297;BME280;51842;47.450;8.654;2023-05-24T10:42:43;95713.22;;;12.41;91.07
44297;BME280;51842;47.450;8.654;2023-05-24T10:45:37;95712.94;;;12.47;91.53
44297;BME280;51842;47.450;8.654;2023-05-24T10:50:39;95723.34;;;12.49;90.54
44297;BME280;51842;47.450;8.654;2023-05-24T10:53:14;95718.00;;;12.54;92.18
44297;BME280;51842;47.450;8.654;2023-05-24T10:55:58;95718.53;;;12.51;90.48
44297;BME280;51842;47.450;8.654;2023-05-24T10:59:00;95719.31;;;12.57;91.70
44297;BME280;51842;47.450;8.654;2023-05-24T11:01:32;95722.00;;;12.52;92.01
44297;BME280;51842;47.450;8.654;2023-05-24T11:04:35;95715.31;;;12.49;91.82
44297;BME280;51842;47.450;8.654;2023-05-24T11:07:02;95726.03;;;12.44;91.92
44297;BME280;51842;47.450;8.654;2023-05-24T11:09:29;95726.31;;;12.47;92.65
44297;BME280;51842;47.450;8.654;2023-05-24T11:12:06;95726.31;;;12.42;91.53
44297;BME280;51842;47.450;8.654;2023-05-24T11:14:37;95730.34;;;12.30;91.63
44297;BME280;51842;47.450;8.654;2023-05-24T11:17:07;95720.50;;;12.20;92.13
44297;BME280;51842;47.450;8.654;2023-05-24T11:19:37;95720.78;;;12.08;92.37
44297;BME280;51842;47.450;8.654;2023-05-24T11:22:06;95714.16;;;12.00;94.75
44297;BME280;51842;47.450;8.654;2023-05-24T11:24:33;95713.28;;;12.15;94.53
44297;BME280;51842;47.450;8.654;2023-05-24T11:27:01;95717.28;;;12.23;93.57
44297;BME280;51842;47.450;8.654;2023-05-24T11:29:28;95719.16;;;12.12;93.87
44297;BME280;51842;47.450;8.654;2023-05-24T11:31:58;95718.13;;;12.13;93.70
44297;BME280;51842;47.450;8.654;2023-05-24T11:34:30;95710.66;;;12.10;93.19
44297;BME280;51842;47.450;8.654;2023-05-24T11:36:58;95715.72;;;12.07;93.37
44297;BME280;51842;47.450;8.654;2023-05-24T11:39:32;95714.41;;;12.04;94.49
44297;BME280;51842;47.450;8.654;2023-05-24T11:41:58;95715.69;;;12.17;94.64
44297;BME280;51842;47.450;8.654;2023-05-24T11:44:29;95708.19;;;12.24;93.05
44297;BME280;51842;47.450;8.654;2023-05-24T11:47:00;95713.53;;;12.19;94.53
44297;BME280;51842;47.450;8.654;2023-05-24T11:49:27;95703.06;;;12.38;94.15
44297;BME280;51842;47.450;8.654;2023-05-24T11:51:57;95705.47;;;12.44;91.87
44297;BME280;51842;47.450;8.654;2023-05-24T11:54:25;95704.63;;;12.49;91.75
44297;BME280;51842;47.450;8.654;2023-05-24T11:56:52;95698.13;;;12.70;92.80
44297;BME280;51842;47.450;8.654;2023-05-24T11:59:28;95695.91;;;12.88;91.97
44297;BME280;51842;47.450;8.654;2023-05-24T12:02:03;95699.59;;;12.97;87.87
44297;BME280;51842;47.450;8.654;2023-05-24T12:04:31;95705.22;;;13.01;90.28
44297;BME280;51842;47.450;8.654;2023-05-24T12:06:58;95690.53;;;13.37;89.05
44297;BME280;51842;47.450;8.654;2023-05-24T12:09:24;95698.41;;;13.58;87.04
44297;BME280;51842;47.450;8.654;2023-05-24T12:11:52;95696.84;;;13.52;84.45
44297;BME280;51842;47.450;8.654;2023-05-24T12:14:29;95690.38;;;13.58;86.31
44297;BME280;51842;47.450;8.654;2023-05-24T12:16:56;95690.19;;;13.78;84.13
44297;BME280;51842;47.450;8.654;2023-05-24T12:19:24;95687.69;;;13.87;83.62
44297;BME280;51842;47.450;8.654;2023-05-24T12:21:58;95685.84;;;14.11;84.22
44297;BME280;51842;47.450;8.654;2023-05-24T12:24:26;95694.84;;;13.97;83.21
44297;BME280;51842;47.450;8.654;2023-05-24T12:27:02;95687.28;;;14.28;85.16
44297;BME280;51842;47.450;8.654;2023-05-24T12:29:34;95693.25;;;14.44;82.81
44297;BME280;51842;47.450;8.654;2023-05-24T12:32:01;95692.03;;;14.60;81.37
44297;BME280;51842;47.450;8.654;2023-05-24T12:34:28;95700.81;;;14.66;83.17
44297;BME280;51842;47.450;8.654;2023-05-24T12:36:54;95697.72;;;14.77;80.66
44297;BME280;51842;47.450;8.654;2023-05-24T12:39:25;95702.00;;;14.97;80.38
44297;BME280;51842;47.450;8.654;2023-05-24T12:42:01;95699.69;;;15.10;79.90
44297;BME280;51842;47.450;8.654;2023-05-24T12:44:35;95699.63;;;15.15;78.01
44297;BME280;51842;47.450;8.654;2023-05-24T12:47:03;95698.84;;;15.14;78.11
44297;BME280;51842;47.450;8.654;2023-05-24T12:49:31;95700.72;;;15.33;76.18
44297;BME280;51842;47.450;8.654;2023-05-24T12:51:57;95700.38;;;15.53;76.40
44297;BME280;51842;47.450;8.654;2023-05-24T12:54:26;95689.22;;;15.46;76.54
44297;BME280;51842;47.450;8.654;2023-05-24T12:56:54;95693.16;;;15.35;75.26
44297;BME280;51842;47.450;8.654;2023-05-24T12:59:20;95695.03;;;15.34;75.72
44297;BME280;51842;47.450;8.654;2023-05-24T13:01:46;95698.81;;;15.33;76.54
44297;BME280;51842;47.450;8.654;2023-05-24T13:04:17;95698.88;;;15.28;74.77
44297;BME280;51842;47.450;8.654;2023-05-24T13:06:43;95703.25;;;15.24;75.77
44297;BME280;51842;47.450;8.654;2023-05-24T13:09:09;95697.38;;;15.22;75.03
44297;BME280;51842;47.450;8.654;2023-05-24T13:11:35;95703.09;;;15.34;76.08
44297;BME280;51842;47.450;8.654;2023-05-24T13:14:04;95690.03;;;15.46;74.29